Terminal Aerodrome Forecast
Issued by NWS

Home | Current Version | Previous Version | Text Only | Print | Product List | Glossary On
Versions: 1 2 3 4 5 6 7 8 9 10 11 12 13 14 15 16
000
FTAK31 PAJN 281100
TAFAJN
TAF
PAJN 281135Z 2812/0112 VRB03KT P6SM SCT200
     FM281800 VRB04KT P6SM SCT050 BKN100
     FM010000 10005KT P6SM BKN050 OVC100
     FM010500 VRB04KT 6SM -RA BR OVC050
     FM011000 VRB03KT 4SM -SNRA BR BKN008 OVC020=

USA.gov is the U.S. government's official web portal to all federal, state and local government web resources and services.